Time;durP1;ratioP1;P1;durP2;ratioP2;P2;SDS_P1;SDS_P2;PMS_P1;PMS_P2;Temp;Humidity;BMP_temperature;BMP_pressure;BME280_temperature;BME280_humidity;BME280_pressure;Samples;Min_cycle;Max_cycle;Signal;HPM_P1;HPM_P2
2022/08/16 00:00:25;;;;;;;2.50;2.30;;;;;;;16.96;100.00;95290.06;1022078;29;20415;-71
2022/08/16 00:00:55;;;;;;;3.42;2.28;;;;;;;17.00;100.00;95290.22;1022025;28;20497;-71
2022/08/16 00:01:26;;;;;;;2.67;2.13;;;;;;;17.01;100.00;95294.44;1025009;28;20070;-71
2022/08/16 00:01:56;;;;;;;2.97;2.50;;;;;;;17.02;100.00;95289.91;1026289;28;20421;-72
2022/08/16 00:02:27;;;;;;;2.95;2.28;;;;;;;16.99;100.00;95293.94;1029348;28;20022;-70
2022/08/16 00:02:57;;;;;;;3.70;2.67;;;;;;;16.99;100.00;95293.19;1029232;28;20031;-71
2022/08/16 00:03:31;;;;;;;2.67;2.10;;;;;;;16.99;100.00;95293.94;1021776;28;20146;-72
2022/08/16 00:04:01;;;;;;;2.38;2.17;;;;;;;16.99;100.00;95295.81;1022103;29;20030;-72
2022/08/16 00:04:32;;;;;;;2.47;2.05;;;;;;;17.01;100.00;95291.78;1018432;28;20104;-71
2022/08/16 00:05:03;;;;;;;3.75;2.35;;;;;;;16.92;100.00;95283.81;1018025;29;20027;-71
2022/08/16 00:05:33;;;;;;;1.80;1.70;;;;;;;17.01;100.00;95285.69;1018556;29;20041;-70
2022/08/16 00:06:04;;;;;;;3.45;1.90;;;;;;;17.01;100.00;95294.44;1019334;28;20027;-71
2022/08/16 00:06:34;;;;;;;3.50;1.90;;;;;;;17.00;100.00;95294.72;1022823;28;20041;-72
2022/08/16 00:07:05;;;;;;;2.10;1.90;;;;;;;16.99;100.00;95299.25;1026997;28;20386;-71
2022/08/16 00:07:36;;;;;;;3.00;1.92;;;;;;;16.91;100.00;95284.94;1030649;28;20393;-72
2022/08/16 00:08:06;;;;;;;3.22;2.55;;;;;;;16.96;100.00;95289.28;1030650;28;20034;-71
2022/08/16 00:08:37;;;;;;;3.15;2.05;;;;;;;16.97;100.00;95290.84;1030875;28;20050;-72
2022/08/16 00:09:07;;;;;;;2.67;2.17;;;;;;;16.93;100.00;95279.31;1026733;28;20033;-71
2022/08/16 00:09:38;;;;;;;2.53;1.98;;;;;;;16.98;100.00;95292.41;1022654;28;20070;-71
2022/08/16 00:10:09;;;;;;;2.88;2.10;;;;;;;16.95;100.00;95293.03;1026711;28;20264;-72
2022/08/16 00:10:40;;;;;;;2.45;1.60;;;;;;;16.92;100.00;95288.34;1018938;29;20032;-72
2022/08/16 00:11:13;;;;;;;2.92;2.08;;;;;;;17.00;100.00;95297.38;1014491;29;20020;-71
2022/08/16 00:11:44;;;;;;;3.47;2.33;;;;;;;16.98;100.00;95292.41;1014634;29;20032;-71
2022/08/16 00:12:14;;;;;;;2.35;2.15;;;;;;;16.99;100.00;95295.81;1016014;29;20395;-72
2022/08/16 00:12:45;;;;;;;2.58;1.75;;;;;;;16.97;100.00;95301.47;1019399;29;20063;-72
2022/08/16 00:13:15;;;;;;;2.08;1.75;;;;;;;16.99;100.00;95293.94;1021797;28;20023;-72
2022/08/16 00:13:47;;;;;;;2.83;1.90;;;;;;;16.96;100.00;95283.97;1018518;29;20028;-71
2022/08/16 00:14:22;;;;;;;2.22;1.70;;;;;;;16.98;100.00;95289.75;1015084;29;20433;-73
2022/08/16 00:14:53;;;;;;;2.80;1.80;;;;;;;17.03;100.00;95294.09;1018916;29;20087;-71
2022/08/16 00:15:27;;;;;;;1.73;1.60;;;;;;;16.98;100.00;95291.63;1020435;28;20459;-72
2022/08/16 00:15:58;;;;;;;2.65;2.10;;;;;;;17.01;100.00;95305.03;1023719;28;20099;-72
2022/08/16 00:16:28;;;;;;;1.85;1.73;;;;;;;16.96;100.00;95294.56;1027400;28;20052;-71
2022/08/16 00:16:59;;;;;;;3.65;1.70;;;;;;;17.01;100.00;95306.91;1026770;28;20026;-71
2022/08/16 00:17:29;;;;;;;2.53;1.60;;;;;;;16.94;100.00;95291.47;1026704;28;20343;-72
2022/08/16 00:18:00;;;;;;;2.08;1.88;;;;;;;16.97;100.00;95298.81;1022633;28;20035;-72
2022/08/16 00:18:30;;;;;;;2.83;1.77;;;;;;;16.99;100.00;95301.13;1022840;28;20110;-71
2022/08/16 00:19:01;;;;;;;1.80;1.50;;;;;;;17.00;100.00;95298.19;1020504;28;20023;-71
2022/08/16 00:19:32;;;;;;;1.95;1.85;;;;;;;17.01;100.00;95298.97;1018709;29;20039;-71
2022/08/16 00:20:07;;;;;;;2.78;1.90;;;;;;;16.93;100.00;95285.41;1018765;29;20032;-71
2022/08/16 00:20:38;;;;;;;3.10;1.90;;;;;;;16.94;100.00;95289.59;1010789;29;20028;-72
2022/08/16 00:21:09;;;;;;;1.95;1.63;;;;;;;16.98;100.00;95291.63;1010362;29;20028;-71
2022/08/16 00:21:42;;;;;;;1.83;1.70;;;;;;;16.96;100.00;95299.88;1010709;29;20039;-71
2022/08/16 00:22:12;;;;;;;3.00;1.98;;;;;;;16.96;100.00;95298.00;1011117;29;20124;-71
2022/08/16 00:22:43;;;;;;;12.23;3.53;;;;;;;16.93;100.00;95284.59;1019237;29;20549;-71
2022/08/16 00:23:13;;;;;;;2.67;1.85;;;;;;;16.90;100.00;95288.69;1023196;28;20086;-71
2022/08/16 00:23:44;;;;;;;2.50;1.63;;;;;;;16.95;100.00;95295.69;1026589;28;20022;-72
2022/08/16 00:24:15;;;;;;;2.38;1.90;;;;;;;16.89;100.00;95288.97;1024693;28;20491;-72
2022/08/16 00:24:46;;;;;;;2.38;1.80;;;;;;;16.93;100.00;95296.00;1022461;28;20107;-72
2022/08/16 00:25:17;;;;;;;2.85;1.98;;;;;;;16.93;100.00;95295.19;1019017;28;20079;-71
2022/08/16 00:25:48;;;;;;;2.25;1.77;;;;;;;16.93;100.00;95303.16;1024631;28;20031;-72
2022/08/16 00:26:18;;;;;;;1.98;1.80;;;;;;;16.91;100.00;95292.09;1018832;28;20134;-71
2022/08/16 00:26:48;;;;;;;5.88;2.10;;;;;;;16.91;100.00;95289.44;1022818;28;20043;-71
2022/08/16 00:27:19;;;;;;;2.22;1.88;;;;;;;16.90;100.00;95299.28;1026950;28;20031;-71
2022/08/16 00:27:49;;;;;;;4.13;2.35;;;;;;;16.87;100.00;95280.56;1030708;28;20544;-72
2022/08/16 00:28:20;;;;;;;2.65;1.67;;;;;;;16.94;100.00;95296.78;1030404;28;20028;-71
2022/08/16 00:28:51;;;;;;;7.20;2.17;;;;;;;16.93;100.00;95297.84;1030612;28;20097;-71
2022/08/16 00:29:21;;;;;;;7.03;2.60;;;;;;;16.93;100.00;95297.84;1029706;28;20026;-72
2022/08/16 00:29:53;;;;;;;1.90;1.50;;;;;;;16.92;100.00;95298.94;1026813;28;20066;-71
2022/08/16 00:30:23;;;;;;;3.13;2.08;;;;;;;16.91;100.00;95294.75;1023875;28;20093;-71
2022/08/16 00:30:54;;;;;;;2.53;1.80;;;;;;;16.91;100.00;95297.41;1024421;28;20129;-72
2022/08/16 00:31:24;;;;;;;3.33;1.77;;;;;;;16.88;100.00;95292.72;1026024;28;20066;-71
2022/08/16 00:31:55;;;;;;;2.55;1.90;;;;;;;16.89;100.00;95297.69;1026775;28;20269;-71
2022/08/16 00:32:25;;;;;;;2.63;1.63;;;;;;;16.90;100.00;95295.81;1026597;28;20121;-71
2022/08/16 00:32:57;;;;;;;1.70;1.55;;;;;;;16.91;100.00;95300.06;1026606;28;20042;-71
2022/08/16 00:33:27;;;;;;;2.30;1.80;;;;;;;16.86;100.00;95295.69;1020022;29;20050;-71
2022/08/16 00:33:57;;;;;;;2.30;1.67;;;;;;;16.91;100.00;95302.72;1018734;29;20102;-73
2022/08/16 00:34:28;;;;;;;2.30;1.90;;;;;;;16.91;100.00;95306.13;1018649;29;20032;-71
2022/08/16 00:34:58;;;;;;;2.92;1.50;;;;;;;16.90;100.00;95306.44;1018910;28;20035;-72
2022/08/16 00:35:31;;;;;;;1.75;1.65;;;;;;;16.89;100.00;95296.94;1022818;28;20087;-72
2022/08/16 00:36:02;;;;;;;1.88;1.73;;;;;;;16.89;100.00;95300.34;1022698;28;20112;-72
2022/08/16 00:36:33;;;;;;;4.07;1.70;;;;;;;16.85;100.00;95294.13;1023100;28;20039;-70
2022/08/16 00:37:03;;;;;;;1.58;1.48;;;;;;;16.89;100.00;95305.66;1030666;28;20624;-72
2022/08/16 00:37:34;;;;;;;4.40;1.70;;;;;;;16.81;100.00;95290.56;1026571;28;20619;-72
2022/08/16 00:38:05;;;;;;;3.13;1.67;;;;;;;16.86;100.00;95300.19;1018646;29;20062;-72
2022/08/16 00:38:36;;;;;;;2.67;1.75;;;;;;;16.87;100.00;95301.78;1014861;29;20024;-71
2022/08/16 00:39:06;;;;;;;2.45;1.83;;;;;;;16.85;100.00;95302.06;1014902;29;20043;-71
2022/08/16 00:39:37;;;;;;;3.83;1.55;;;;;;;16.88;100.00;95298.03;1022738;28;20034;-72
2022/08/16 00:40:08;;;;;;;1.98;1.77;;;;;;;16.88;100.00;95301.44;1030705;28;20031;-72
2022/08/16 00:40:40;;;;;;;2.40;1.67;;;;;;;16.87;100.00;95302.56;1030590;28;20038;-72
2022/08/16 00:41:10;;;;;;;3.17;1.85;;;;;;;16.77;100.00;95291.47;1025890;28;20109;-72
2022/08/16 00:41:41;;;;;;;1.95;1.70;;;;;;;16.84;100.00;95305.06;1026557;28;20579;-72
2022/08/16 00:42:12;;;;;;;3.47;1.60;;;;;;;16.83;100.00;95300.81;1022975;28;20027;-71
2022/08/16 00:42:42;;;;;;;2.65;1.80;;;;;;;16.83;100.00;95306.13;1022537;28;20054;-72
2022/08/16 00:43:24;;;;;;;1.90;1.70;;;;;;;16.82;100.00;95304.56;1022775;28;20102;-71
2022/08/16 00:43:54;;;;;;;2.83;1.48;;;;;;;16.77;100.00;95302.88;1022772;29;20617;-71
2022/08/16 00:44:25;;;;;;;2.20;1.77;;;;;;;16.79;100.00;95302.53;1025599;28;20035;-71
2022/08/16 00:44:57;;;;;;;1.67;1.52;;;;;;;16.77;100.00;95299.41;1030643;28;20057;-71
2022/08/16 00:45:35;;;;;;;2.55;1.70;;;;;;;16.72;100.00;95300.34;1030539;28;20110;-71
2022/08/16 00:46:28;;;;;;;3.13;1.70;;;;;;;16.72;100.00;95301.09;1022370;28;20033;-71
2022/08/16 00:47:04;;;;;;;2.20;1.65;;;;;;;16.74;100.00;95303.47;1022500;29;20027;-71
2022/08/16 00:47:36;;;;;;;1.60;1.50;;;;;;;16.72;100.00;95311.72;1014416;29;20074;-70
2022/08/16 00:48:08;;;;;;;1.77;1.67;;;;;;;16.67;100.00;95306.56;1024427;28;20642;-70
2022/08/16 00:48:38;;;;;;;1.98;1.73;;;;;;;16.69;100.00;95307.03;1026366;28;20038;-72
2022/08/16 00:49:09;;;;;;;2.58;1.55;;;;;;;16.69;100.00;95311.56;1026190;28;20113;-71
2022/08/16 00:49:40;;;;;;;2.45;1.70;;;;;;;16.66;100.00;95314.81;1015254;29;20034;-71
2022/08/16 00:50:10;;;;;;;2.22;1.50;;;;;;;16.59;100.00;95307.34;1018721;29;20361;-71
2022/08/16 00:50:42;;;;;;;1.77;1.67;;;;;;;16.65;100.00;95315.91;1018581;29;20027;-71
2022/08/16 00:51:14;;;;;;;2.10;1.55;;;;;;;16.63;100.00;95308.28;1017884;29;20059;-71
2022/08/16 00:51:44;;;;;;;2.42;1.95;;;;;;;16.57;100.00;95301.59;1018413;29;20034;-71
2022/08/16 00:52:15;;;;;;;4.22;2.10;;;;;;;16.60;100.00;95316.88;1018693;29;20031;-71
2022/08/16 00:52:45;;;;;;;2.53;1.80;;;;;;;16.61;100.00;95317.63;1018582;29;20104;-71
2022/08/16 00:53:16;;;;;;;2.25;1.73;;;;;;;16.59;100.00;95315.28;1018884;28;20074;-71
2022/08/16 00:53:47;;;;;;;3.22;1.70;;;;;;;16.56;100.00;95313.25;1018584;29;20422;-71
2022/08/16 00:54:18;;;;;;;2.58;1.88;;;;;;;16.55;100.00;95311.69;1018689;29;20035;-71
2022/08/16 00:54:48;;;;;;;3.42;2.00;;;;;;;16.55;100.00;95311.69;1018530;29;20028;-71
2022/08/16 00:55:20;;;;;;;1.90;1.50;;;;;;;16.53;100.00;95308.56;1022800;28;20487;-71
2022/08/16 00:55:52;;;;;;;2.20;1.70;;;;;;;16.53;100.00;95313.09;1023134;28;20114;-70
2022/08/16 00:56:26;;;;;;;2.05;1.85;;;;;;;16.51;100.00;95310.78;1026387;28;20118;-70
2022/08/16 00:56:57;;;;;;;4.63;1.60;;;;;;;16.45;100.00;95301.41;1022682;29;20023;-72
2022/08/16 00:57:27;;;;;;;2.53;1.90;;;;;;;16.49;100.00;95312.94;1022437;29;20074;-71
2022/08/16 00:57:58;;;;;;;1.70;1.40;;;;;;;16.48;100.00;95312.16;1021449;29;20051;-71
2022/08/16 00:58:29;;;;;;;1.70;1.60;;;;;;;16.48;100.00;95317.47;1018778;29;20032;-71
2022/08/16 00:58:59;;;;;;;1.83;1.65;;;;;;;16.46;100.00;95318.84;1018549;29;20463;-71
2022/08/16 00:59:32;;;;;;;1.77;1.63;;;;;;;16.44;100.00;95310.47;1022469;29;20031;-71
2022/08/16 01:00:05;;;;;;;3.15;1.90;;;;;;;16.45;100.00;95315.44;1022386;28;20019;-73
2022/08/16 01:00:36;;;;;;;2.17;1.90;;;;;;;16.43;100.00;95317.63;1026399;28;20030;-71
2022/08/16 01:01:07;;;;;;;2.15;1.85;;;;;;;16.38;100.00;95307.16;1025288;28;20054;-71
2022/08/16 01:01:38;;;;;;;1.60;1.38;;;;;;;16.40;100.00;95312.16;1021065;29;20019;-71
2022/08/16 01:02:08;;;;;;;2.00;1.70;;;;;;;16.40;100.00;95314.81;1018616;29;20026;-71
2022/08/16 01:02:39;;;;;;;3.75;1.67;;;;;;;16.39;100.00;95321.19;1022505;29;20609;-72
2022/08/16 01:03:11;;;;;;;2.10;1.90;;;;;;;16.31;100.00;95314.03;1026493;28;20030;-72
2022/08/16 01:03:42;;;;;;;3.35;2.00;;;;;;;16.34;100.00;95322.13;1014576;29;20426;-72
2022/08/16 01:04:16;;;;;;;2.38;1.77;;;;;;;16.31;100.00;95314.03;1018454;29;20132;-72
2022/08/16 01:04:49;;;;;;;2.80;1.92;;;;;;;16.27;100.00;95309.34;1026536;28;20030;-72
2022/08/16 01:05:20;;;;;;;1.95;1.85;;;;;;;16.31;100.00;95317.44;1026775;28;20027;-71
2022/08/16 01:05:50;;;;;;;2.05;1.65;;;;;;;16.29;100.00;95313.53;1019273;29;20716;-71
2022/08/16 01:06:21;;;;;;;1.77;1.60;;;;;;;16.27;100.00;95312.00;1023172;28;20460;-71
2022/08/16 01:06:51;;;;;;;1.67;1.50;;;;;;;16.26;100.00;95307.78;1022533;28;20019;-72
2022/08/16 01:07:22;;;;;;;2.20;1.67;;;;;;;16.26;100.00;95313.09;1018877;29;20052;-71
2022/08/16 01:07:52;;;;;;;4.30;1.85;;;;;;;16.25;100.00;95308.84;1022521;29;20147;-71
2022/08/16 01:08:23;;;;;;;1.77;1.60;;;;;;;16.22;100.00;95312.13;1021162;28;20031;-71
2022/08/16 01:08:54;;;;;;;2.00;1.80;;;;;;;16.17;100.00;95308.84;1022832;28;20687;-71
2022/08/16 01:09:24;;;;;;;2.78;1.45;;;;;;;16.17;100.00;95309.63;1022603;29;20513;-71
2022/08/16 01:09:55;;;;;;;1.63;1.52;;;;;;;16.17;100.00;95312.28;1022547;28;20031;-72
2022/08/16 01:10:26;;;;;;;2.28;1.88;;;;;;;16.13;100.00;95305.25;1022550;29;20025;-71
2022/08/16 01:10:57;;;;;;;1.90;1.80;;;;;;;16.17;100.00;95312.28;1018795;28;20036;-71
2022/08/16 01:11:27;;;;;;;4.63;1.80;;;;;;;16.16;100.00;95316.03;1018299;29;20023;-72
2022/08/16 01:11:59;;;;;;;2.28;1.80;;;;;;;16.15;100.00;95319.75;1018689;29;20027;-70
2022/08/16 01:12:29;;;;;;;2.17;1.90;;;;;;;16.13;100.00;95315.84;1018358;29;20047;-71
2022/08/16 01:13:11;;;;;;;1.67;1.58;;;;;;;16.13;100.00;95326.41;1014881;29;20027;-72
2022/08/16 01:13:42;;;;;;;1.55;1.40;;;;;;;16.10;100.00;95322.53;1018780;29;20604;-72
2022/08/16 01:14:18;;;;;;;3.22;1.52;;;;;;;16.10;100.00;95325.19;1014584;29;20031;-71
2022/08/16 01:14:53;;;;;;;2.05;1.80;;;;;;;16.08;100.00;95318.63;1018659;29;20750;-72
2022/08/16 01:15:23;;;;;;;1.85;1.75;;;;;;;16.07;100.00;95320.50;1018683;29;20122;-72
2022/08/16 01:15:59;;;;;;;2.17;1.98;;;;;;;16.02;100.00;95320.63;1012217;29;20039;-72
2022/08/16 01:16:30;;;;;;;4.95;2.08;;;;;;;16.06;100.00;95320.81;1017909;29;20043;-72
2022/08/16 01:17:01;;;;;;;3.33;1.67;;;;;;;15.95;100.00;95310.50;1017918;29;20082;-71
2022/08/16 01:17:31;;;;;;;3.53;1.90;;;;;;;16.03;100.00;95322.22;1022439;29;20083;-71
2022/08/16 01:18:03;;;;;;;2.45;1.60;;;;;;;15.95;100.00;95305.19;1018684;29;20039;-71
2022/08/16 01:18:42;;;;;;;8.25;3.15;;;;;;;16.01;100.00;95319.84;1020052;29;20027;-71
2022/08/16 01:19:33;;;;;;;1.98;1.80;;;;;;;16.00;100.00;95320.97;1022771;28;20066;-72
2022/08/16 01:20:07;;;;;;;3.05;1.90;;;;;;;15.99;100.00;95315.94;1022601;29;20043;-71
2022/08/16 01:20:40;;;;;;;2.22;1.90;;;;;;;15.92;100.00;95315.63;1022385;28;20039;-71
2022/08/16 01:21:45;;;;;;;1.90;1.73;;;;;;;15.97;100.00;95320.78;1018178;29;20121;-72
2022/08/16 01:22:27;;;;;;;1.77;1.67;;;;;;;15.96;100.00;95329.78;1026560;28;20023;-72
2022/08/16 01:23:12;;;;;;;2.65;1.65;;;;;;;15.94;100.00;95318.75;1024730;28;20121;-71
2022/08/16 01:24:07;;;;;;;4.35;1.52;;;;;;;15.94;100.00;95321.41;1026127;28;20035;-72
2022/08/16 01:24:50;;;;;;;1.73;1.63;;;;;;;15.85;100.00;95310.78;1029607;28;20153;-72
2022/08/16 01:25:41;;;;;;;2.35;1.83;;;;;;;15.90;100.00;95317.81;1034669;28;20075;-72
2022/08/16 01:26:11;;;;;;;2.90;2.28;;;;;;;15.89;100.00;95311.72;1022615;28;20034;-73
2022/08/16 01:26:42;;;;;;;1.70;1.60;;;;;;;15.81;100.00;95301.91;1022278;29;20386;-72
2022/08/16 01:27:21;;;;;;;2.40;1.80;;;;;;;15.88;100.00;95314.69;1018605;29;20027;-72
2022/08/16 01:27:53;;;;;;;3.38;1.90;;;;;;;15.85;100.00;95310.78;1010796;29;20036;-72
2022/08/16 01:28:24;;;;;;;2.63;1.65;;;;;;;15.87;100.00;95311.25;1010815;29;20039;-72
2022/08/16 01:28:56;;;;;;;4.70;1.70;;;;;;;15.87;100.00;95321.06;1018405;29;20023;-72
2022/08/16 01:29:31;;;;;;;1.98;1.50;;;;;;;15.87;100.00;95321.06;1019266;29;20059;-72
2022/08/16 01:30:22;;;;;;;2.03;1.83;;;;;;;15.84;100.00;95316.38;1022488;29;20023;-73
2022/08/16 01:30:54;;;;;;;1.63;1.52;;;;;;;15.83;100.00;95320.91;1028036;28;20027;-71
2022/08/16 01:31:25;;;;;;;2.35;2.00;;;;;;;15.78;100.00;95311.22;1021908;29;20081;-72
2022/08/16 01:31:55;;;;;;;2.42;1.73;;;;;;;15.82;100.00;95315.91;1022450;28;20456;-72
2022/08/16 01:32:28;;;;;;;2.50;1.60;;;;;;;15.83;100.00;95315.59;1022526;28;20030;-72
2022/08/16 01:33:01;;;;;;;4.40;2.13;;;;;;;15.82;100.00;95315.91;1018472;29;20479;-72
2022/08/16 01:33:31;;;;;;;2.20;1.40;;;;;;;15.69;100.00;95293.75;1018427;29;20549;-72
2022/08/16 01:34:02;;;;;;;1.40;1.30;;;;;;;15.84;100.00;95321.69;1018500;29;20027;-71
2022/08/16 01:34:32;;;;;;;3.00;1.58;;;;;;;15.85;100.00;95318.72;1026189;28;20485;-72
2022/08/16 01:35:05;;;;;;;2.35;1.60;;;;;;;15.85;100.00;95320.59;1018300;28;20032;-72
2022/08/16 01:36:00;;;;;;;2.13;1.92;;;;;;;15.84;100.00;95311.09;1022073;29;20130;-72
2022/08/16 01:36:31;;;;;;;6.75;1.58;;;;;;;15.82;100.00;95315.91;1022198;29;20496;-72
2022/08/16 01:37:05;;;;;;;2.35;1.77;;;;;;;15.74;100.00;95309.50;1022486;29;20102;-71
2022/08/16 01:37:40;;;;;;;3.65;1.70;;;;;;;15.79;100.00;95318.09;1023345;28;20027;-71
2022/08/16 01:38:13;;;;;;;1.77;1.67;;;;;;;15.79;100.00;95322.56;1022308;29;20109;-71
2022/08/16 01:38:46;;;;;;;1.95;1.52;;;;;;;15.77;100.00;95314.97;1022312;29;20027;-72
2022/08/16 01:39:16;;;;;;;2.67;2.03;;;;;;;15.71;100.00;95302.16;1026139;28;20523;-71
2022/08/16 01:39:47;;;;;;;3.90;1.60;;;;;;;15.78;100.00;95321.81;1027105;28;20038;-72
2022/08/16 01:40:18;;;;;;;2.05;1.55;;;;;;;15.77;100.00;95314.19;1030412;28;20693;-71
2022/08/16 01:40:50;;;;;;;1.50;1.40;;;;;;;15.78;100.00;95319.16;1030693;28;20129;-71
2022/08/16 01:41:23;;;;;;;3.65;1.55;;;;;;;15.77;100.00;95309.66;1027596;28;20046;-71
2022/08/16 01:41:54;;;;;;;2.33;1.63;;;;;;;15.77;100.00;95314.19;1022285;29;20465;-71
2022/08/16 01:42:24;;;;;;;1.50;1.40;;;;;;;15.76;100.00;95316.06;1026244;28;20066;-71
2022/08/16 01:42:54;;;;;;;3.67;1.77;;;;;;;15.76;100.00;95318.69;1026157;28;20059;-72
2022/08/16 01:43:25;;;;;;;2.55;1.45;;;;;;;15.75;100.00;95314.47;1026241;28;20045;-72
2022/08/16 01:43:56;;;;;;;1.80;1.65;;;;;;;15.68;100.00;95311.50;1030270;28;20493;-72
2022/08/16 01:44:29;;;;;;;2.40;1.50;;;;;;;15.72;100.00;95316.94;1022207;28;20042;-72
2022/08/16 01:45:00;;;;;;;5.53;1.85;;;;;;;15.72;100.00;95312.44;1018431;29;20101;-72
2022/08/16 01:45:30;;;;;;;1.88;1.77;;;;;;;15.62;100.00;95301.31;1018264;29;20148;-72
2022/08/16 01:46:06;;;;;;;1.85;1.67;;;;;;;15.69;100.00;95315.72;1017522;29;20031;-72
2022/08/16 01:46:39;;;;;;;6.00;1.83;;;;;;;15.62;100.00;95302.09;1014530;29;20040;-72
2022/08/16 01:47:10;;;;;;;2.83;1.67;;;;;;;15.68;100.00;95310.72;1015641;29;20075;-72
2022/08/16 01:47:41;;;;;;;2.80;1.58;;;;;;;15.66;100.00;95311.03;1019472;28;20127;-72
2022/08/16 01:48:11;;;;;;;3.40;1.70;;;;;;;15.63;100.00;95305.53;1020745;29;20041;-71
2022/08/16 01:48:42;;;;;;;12.32;2.63;;;;;;;15.64;100.00;95313.16;1026154;28;20038;-71
2022/08/16 01:49:23;;;;;;;8.32;2.40;;;;;;;15.63;100.00;95311.59;1026289;28;20489;-71
2022/08/16 01:49:54;;;;;;;2.80;1.52;;;;;;;15.62;100.00;95312.69;1023853;28;20050;-72
2022/08/16 01:50:25;;;;;;;1.63;1.30;;;;;;;15.63;100.00;95311.59;1028094;28;20034;-72
2022/08/16 01:50:56;;;;;;;2.78;1.73;;;;;;;15.62;100.00;95311.91;1018423;28;20042;-72
2022/08/16 01:51:27;;;;;;;2.88;1.60;;;;;;;15.63;100.00;95314.25;1021792;28;20031;-72
2022/08/16 01:52:12;;;;;;;2.28;1.80;;;;;;;15.65;100.00;95306.78;1024026;28;20469;-72
2022/08/16 01:52:42;;;;;;;2.70;1.80;;;;;;;15.59;100.00;95305.34;1022588;29;20211;-69
2022/08/16 01:53:13;;;;;;;1.63;1.33;;;;;;;15.64;100.00;95305.22;1020579;29;20035;-73
2022/08/16 01:53:43;;;;;;;2.40;1.30;;;;;;;15.64;100.00;95310.50;1027252;28;20038;-72
2022/08/16 01:54:14;;;;;;;2.10;1.42;;;;;;;15.63;100.00;95308.97;1030591;28;20034;-72
2022/08/16 01:54:44;;;;;;;2.47;1.92;;;;;;;15.65;100.00;95308.66;1030344;28;20023;-72
2022/08/16 01:55:18;;;;;;;1.52;1.42;;;;;;;15.64;100.00;95307.88;1026412;28;20042;-71
2022/08/16 01:55:49;;;;;;;1.80;1.48;;;;;;;15.65;100.00;95316.59;1030054;28;20093;-72
2022/08/16 01:56:19;;;;;;;1.90;1.27;;;;;;;15.64;100.00;95304.44;1026287;28;20026;-72
2022/08/16 01:56:50;;;;;;;2.47;1.65;;;;;;;15.65;100.00;95308.66;1022383;29;20074;-71
2022/08/16 01:57:21;;;;;;;1.63;1.52;;;;;;;15.65;100.00;95301.50;1014535;29;20068;-72
2022/08/16 01:57:51;;;;;;;1.63;1.50;;;;;;;15.58;100.00;95293.22;1014519;29;20036;-73
2022/08/16 01:58:22;;;;;;;3.15;1.75;;;;;;;15.55;100.00;95289.31;1022439;28;20023;-72
2022/08/16 01:58:53;;;;;;;3.15;1.33;;;;;;;15.60;100.00;95299.00;1026548;28;20022;-72
2022/08/16 01:59:24;;;;;;;3.00;1.98;;;;;;;15.59;100.00;95302.69;1026415;28;20030;-72
2022/08/16 01:59:54;;;;;;;1.92;1.60;;;;;;;15.58;100.00;95301.16;1025922;28;20030;-73
2022/08/16 02:00:25;;;;;;;2.03;1.63;;;;;;;15.58;100.00;95298.50;1022571;28;20387;-73
2022/08/16 02:00:56;;;;;;;2.25;2.05;;;;;;;15.57;100.00;95294.31;1026376;28;20018;-72
2022/08/16 02:01:27;;;;;;;2.72;1.48;;;;;;;15.57;100.00;95300.38;1025680;28;20026;-72
2022/08/16 02:01:57;;;;;;;3.65;1.60;;;;;;;15.57;100.00;95304.88;1026299;28;20085;-71
2022/08/16 02:02:28;;;;;;;1.85;1.70;;;;;;;15.53;100.00;95293.38;1026162;28;20109;-72
2022/08/16 02:03:01;;;;;;;4.45;2.25;;;;;;;15.50;100.00;95293.97;1026040;28;20046;-71
2022/08/16 02:03:32;;;;;;;5.55;1.92;;;;;;;15.49;100.00;95295.03;1026632;28;20030;-71
2022/08/16 02:04:02;;;;;;;2.30;1.42;;;;;;;15.50;100.00;95299.25;1026614;28;20077;-72
2022/08/16 02:04:36;;;;;;;1.80;1.70;;;;;;;15.49;100.00;95295.84;1018692;28;20028;-72
2022/08/16 02:05:07;;;;;;;2.92;1.92;;;;;;;15.48;100.00;95296.91;1018254;29;20501;-72
2022/08/16 02:05:39;;;;;;;1.55;1.45;;;;;;;15.48;100.00;95298.78;1013990;29;20300;-71
2022/08/16 02:06:10;;;;;;;1.85;1.65;;;;;;;15.50;100.00;95299.25;1015870;29;20036;-71
2022/08/16 02:06:40;;;;;;;2.00;1.83;;;;;;;15.48;100.00;95296.13;1024346;28;20085;-71
2022/08/16 02:07:12;;;;;;;3.03;1.77;;;;;;;15.40;100.00;95292.38;1022438;28;20034;-71
2022/08/16 02:07:42;;;;;;;3.97;1.83;;;;;;;15.47;100.00;95299.88;1022533;28;20019;-72
2022/08/16 02:08:12;;;;;;;2.55;1.65;;;;;;;15.47;100.00;95294.56;1025591;28;20038;-72
2022/08/16 02:08:43;;;;;;;1.95;1.70;;;;;;;15.46;100.00;95298.28;1022217;28;20031;-72
2022/08/16 02:09:14;;;;;;;1.52;1.42;;;;;;;15.46;100.00;95300.94;1026071;28;20035;-71
2022/08/16 02:09:46;;;;;;;4.75;1.67;;;;;;;15.40;100.00;95286.31;1034260;28;20026;-72
2022/08/16 02:10:16;;;;;;;2.72;1.48;;;;;;;15.44;100.00;95301.25;1030344;28;20145;-71
2022/08/16 02:10:47;;;;;;;1.90;1.70;;;;;;;15.44;100.00;95295.97;1029985;28;20034;-72
2022/08/16 02:11:17;;;;;;;2.15;1.50;;;;;;;15.43;100.00;95299.69;1029325;28;20053;-71
2022/08/16 02:11:50;;;;;;;1.70;1.60;;;;;;;15.43;100.00;95298.91;1026429;28;20517;-72
2022/08/16 02:12:21;;;;;;;2.25;2.00;;;;;;;15.43;100.00;95293.63;1022483;29;20120;-72
2022/08/16 02:12:51;;;;;;;2.08;1.70;;;;;;;15.43;100.00;95293.63;1022636;28;20371;-72
2022/08/16 02:13:21;;;;;;;2.67;1.70;;;;;;;15.40;100.00;95295.00;1022325;28;20061;-72
2022/08/16 02:13:52;;;;;;;2.05;1.67;;;;;;;15.41;100.00;95296.56;1018750;29;20071;-72
2022/08/16 02:14:25;;;;;;;1.83;1.50;;;;;;;15.40;100.00;95295.00;1022560;28;20117;-71
2022/08/16 02:14:56;;;;;;;1.80;1.60;;;;;;;15.42;100.00;95295.47;1018522;29;20043;-72
2022/08/16 02:15:27;;;;;;;1.83;1.70;;;;;;;15.43;100.00;95293.63;1014899;29;20036;-72
2022/08/16 02:15:57;;;;;;;3.47;1.73;;;;;;;15.38;100.00;95293.75;1014466;29;20020;-71
2022/08/16 02:16:28;;;;;;;2.28;1.80;;;;;;;15.38;100.00;95285.81;1014807;29;20167;-72
2022/08/16 02:17:03;;;;;;;4.55;2.22;;;;;;;15.42;100.00;95295.47;1022295;28;20031;-71
2022/08/16 02:17:33;;;;;;;1.73;1.63;;;;;;;15.35;100.00;95291.72;1014457;29;20023;-73
2022/08/16 02:18:04;;;;;;;3.78;1.83;;;;;;;15.40;100.00;95300.28;1010491;29;20071;-72
2022/08/16 02:18:35;;;;;;;2.20;1.70;;;;;;;15.38;100.00;95294.53;1016854;29;20582;-72
2022/08/16 02:19:05;;;;;;;2.38;1.65;;;;;;;15.35;100.00;95303.06;1022046;28;20027;-70
2022/08/16 02:19:38;;;;;;;3.88;2.20;;;;;;;15.33;100.00;95302.59;1022528;28;20036;-73
2022/08/16 02:20:09;;;;;;;1.60;1.40;;;;;;;15.35;100.00;95310.22;1022621;28;20489;-72
2022/08/16 02:20:40;;;;;;;2.28;2.08;;;;;;;15.29;100.00;95291.84;1014476;29;20021;-73
2022/08/16 02:21:11;;;;;;;1.85;1.65;;;;;;;15.34;100.00;95301.50;1014326;29;20056;-71
2022/08/16 02:21:42;;;;;;;2.47;1.85;;;;;;;15.28;100.00;95292.91;1022169;29;20056;-71
2022/08/16 02:22:13;;;;;;;4.03;1.85;;;;;;;15.30;100.00;95301.34;1022340;28;20034;-73
2022/08/16 02:22:44;;;;;;;4.10;1.88;;;;;;;15.24;100.00;95297.25;1022383;29;20022;-72
2022/08/16 02:23:15;;;;;;;2.33;1.80;;;;;;;15.25;100.00;95293.50;1018271;29;20032;-73
2022/08/16 02:23:45;;;;;;;2.72;2.08;;;;;;;15.26;100.00;95297.75;1022380;29;20106;-73
2022/08/16 02:24:16;;;;;;;2.28;1.60;;;;;;;15.25;100.00;95298.03;1024649;28;20452;-72
2022/08/16 02:24:46;;;;;;;2.45;1.85;;;;;;;15.25;100.00;95303.31;1026285;28;20164;-71
2022/08/16 02:25:17;;;;;;;2.05;1.83;;;;;;;15.25;100.00;95306.72;1029938;28;20026;-72
2022/08/16 02:25:48;;;;;;;3.10;1.70;;;;;;;15.25;100.00;95308.59;1025715;28;20069;-73
2022/08/16 02:26:18;;;;;;;2.53;1.73;;;;;;;15.23;100.00;95306.28;1026350;28;20560;-73
2022/08/16 02:26:49;;;;;;;2.22;1.92;;;;;;;15.19;100.00;95294.75;1026486;28;20080;-72
2022/08/16 02:27:19;;;;;;;2.50;1.77;;;;;;;15.23;100.00;95301.00;1026006;28;20524;-71
2022/08/16 02:27:50;;;;;;;1.65;1.55;;;;;;;15.23;100.00;95306.28;1022656;28;20486;-72
2022/08/16 02:28:21;;;;;;;2.28;1.70;;;;;;;15.17;100.00;95296.91;1030578;28;20041;-71
2022/08/16 02:28:51;;;;;;;8.32;2.30;;;;;;;15.22;100.00;95309.19;1026425;28;20031;-72
2022/08/16 02:29:22;;;;;;;6.13;2.00;;;;;;;15.22;100.00;95312.63;1024770;28;20066;-72